sensor_id;sensor_type;location;lat;lon;timestamp;P1;durP1;ratioP1;P2;durP2;ratioP2
15814;SDS011;8008;50.024;8.172;2023-02-03T04:00:45;1.10;;;1.00;;
15814;SDS011;8008;50.024;8.172;2023-02-03T04:03:15;1.83;;;1.00;;
15814;SDS011;8008;50.024;8.172;2023-02-03T04:05:47;2.60;;;1.00;;
15814;SDS011;8008;50.024;8.172;2023-02-03T04:08:15;1.00;;;1.00;;
15814;SDS011;8008;50.024;8.172;2023-02-03T04:10:43;2.10;;;1.10;;
15814;SDS011;8008;50.024;8.172;2023-02-03T04:13:12;1.37;;;1.20;;
15814;SDS011;8008;50.024;8.172;2023-02-03T04:15:41;1.60;;;1.20;;
15814;SDS011;8008;50.024;8.172;2023-02-03T04:18:10;1.40;;;1.03;;
15814;SDS011;8008;50.024;8.172;2023-02-03T04:20:39;1.40;;;1.00;;
15814;SDS011;8008;50.024;8.172;2023-02-03T04:23:07;1.00;;;1.00;;
15814;SDS011;8008;50.024;8.172;2023-02-03T04:25:35;1.73;;;1.10;;
15814;SDS011;8008;50.024;8.172;2023-02-03T04:28:03;1.17;;;0.83;;
15814;SDS011;8008;50.024;8.172;2023-02-03T04:30:32;0.90;;;0.87;;
15814;SDS011;8008;50.024;8.172;2023-02-03T04:33:00;1.80;;;1.10;;
15814;SDS011;8008;50.024;8.172;2023-02-03T04:35:29;2.80;;;1.07;;
15814;SDS011;8008;50.024;8.172;2023-02-03T04:37:57;1.10;;;1.00;;
15814;SDS011;8008;50.024;8.172;2023-02-03T04:40:25;2.00;;;1.00;;
15814;SDS011;8008;50.024;8.172;2023-02-03T04:42:53;1.97;;;1.03;;
15814;SDS011;8008;50.024;8.172;2023-02-03T04:45:21;1.20;;;1.10;;
15814;SDS011;8008;50.024;8.172;2023-02-03T04:47:50;2.33;;;1.20;;
15814;SDS011;8008;50.024;8.172;2023-02-03T04:50:19;2.27;;;1.30;;
15814;SDS011;8008;50.024;8.172;2023-02-03T04:52:49;1.20;;;1.10;;
15814;SDS011;8008;50.024;8.172;2023-02-03T04:55:17;1.33;;;1.10;;
15814;SDS011;8008;50.024;8.172;2023-02-03T04:57:45;1.90;;;1.17;;
15814;SDS011;8008;50.024;8.172;2023-02-03T05:00:13;1.27;;;1.10;;
15814;SDS011;8008;50.024;8.172;2023-02-03T05:02:41;1.57;;;1.10;;
15814;SDS011;8008;50.024;8.172;2023-02-03T05:05:09;2.20;;;1.00;;
15814;SDS011;8008;50.024;8.172;2023-02-03T05:07:37;1.80;;;1.27;;
15814;SDS011;8008;50.024;8.172;2023-02-03T05:10:06;3.70;;;1.53;;
15814;SDS011;8008;50.024;8.172;2023-02-03T05:12:35;1.33;;;1.20;;
15814;SDS011;8008;50.024;8.172;2023-02-03T05:15:03;1.30;;;1.20;;
15814;SDS011;8008;50.024;8.172;2023-02-03T05:17:32;3.23;;;1.10;;
15814;SDS011;8008;50.024;8.172;2023-02-03T05:22:36;1.30;;;1.20;;
15814;SDS011;8008;50.024;8.172;2023-02-03T05:25:04;1.27;;;1.10;;
15814;SDS011;8008;50.024;8.172;2023-02-03T05:27:36;1.17;;;1.03;;
15814;SDS011;8008;50.024;8.172;2023-02-03T05:30:05;4.00;;;1.40;;
15814;SDS011;8008;50.024;8.172;2023-02-03T05:32:34;1.90;;;1.30;;
15814;SDS011;8008;50.024;8.172;2023-02-03T05:35:02;2.17;;;1.10;;
15814;SDS011;8008;50.024;8.172;2023-02-03T05:37:30;1.43;;;1.10;;
15814;SDS011;8008;50.024;8.172;2023-02-03T05:39:57;1.20;;;1.10;;
15814;SDS011;8008;50.024;8.172;2023-02-03T05:42:47;3.93;;;1.40;;
15814;SDS011;8008;50.024;8.172;2023-02-03T05:45:21;3.80;;;2.10;;
15814;SDS011;8008;50.024;8.172;2023-02-03T05:47:48;1.53;;;1.30;;
15814;SDS011;8008;50.024;8.172;2023-02-03T05:50:16;1.73;;;1.40;;
15814;SDS011;8008;50.024;8.172;2023-02-03T05:52:44;1.87;;;1.30;;
15814;SDS011;8008;50.024;8.172;2023-02-03T05:55:12;2.33;;;1.10;;
15814;SDS011;8008;50.024;8.172;2023-02-03T05:57:40;2.87;;;1.60;;
15814;SDS011;8008;50.024;8.172;2023-02-03T06:00:10;4.32;;;1.80;;
15814;SDS011;8008;50.024;8.172;2023-02-03T06:02:40;1.83;;;1.10;;
15814;SDS011;8008;50.024;8.172;2023-02-03T06:05:08;5.20;;;1.60;;
15814;SDS011;8008;50.024;8.172;2023-02-03T06:07:37;1.73;;;1.20;;
15814;SDS011;8008;50.024;8.172;2023-02-03T06:10:06;1.93;;;1.17;;
15814;SDS011;8008;50.024;8.172;2023-02-03T06:12:36;2.30;;;1.30;;
15814;SDS011;8008;50.024;8.172;2023-02-03T06:15:04;1.87;;;1.30;;
15814;SDS011;8008;50.024;8.172;2023-02-03T06:17:33;3.87;;;1.73;;
15814;SDS011;8008;50.024;8.172;2023-02-03T06:20:02;2.80;;;1.50;;
15814;SDS011;8008;50.024;8.172;2023-02-03T06:22:31;3.67;;;1.37;;
15814;SDS011;8008;50.024;8.172;2023-02-03T06:24:58;2.50;;;1.50;;
15814;SDS011;8008;50.024;8.172;2023-02-03T06:27:27;4.37;;;1.67;;
15814;SDS011;8008;50.024;8.172;2023-02-03T06:29:54;3.13;;;1.37;;
15814;SDS011;8008;50.024;8.172;2023-02-03T06:32:22;2.37;;;1.40;;
15814;SDS011;8008;50.024;8.172;2023-02-03T06:34:51;2.10;;;1.30;;
15814;SDS011;8008;50.024;8.172;2023-02-03T06:37:19;1.50;;;1.40;;
15814;SDS011;8008;50.024;8.172;2023-02-03T06:39:50;3.13;;;1.70;;
15814;SDS011;8008;50.024;8.172;2023-02-03T06:42:17;3.67;;;1.80;;
15814;SDS011;8008;50.024;8.172;2023-02-03T06:44:45;1.77;;;1.30;;
15814;SDS011;8008;50.024;8.172;2023-02-03T06:47:13;3.37;;;1.77;;
15814;SDS011;8008;50.024;8.172;2023-02-03T06:49:41;1.93;;;1.40;;
15814;SDS011;8008;50.024;8.172;2023-02-03T06:52:10;2.07;;;1.43;;
15814;SDS011;8008;50.024;8.172;2023-02-03T06:54:38;4.27;;;1.60;;
15814;SDS011;8008;50.024;8.172;2023-02-03T06:57:07;2.97;;;1.60;;
15814;SDS011;8008;50.024;8.172;2023-02-03T06:59:35;1.40;;;1.30;;
15814;SDS011;8008;50.024;8.172;2023-02-03T07:02:03;2.63;;;1.40;;
15814;SDS011;8008;50.024;8.172;2023-02-03T07:04:31;2.00;;;1.30;;
15814;SDS011;8008;50.024;8.172;2023-02-03T07:06:59;2.37;;;1.60;;
15814;SDS011;8008;50.024;8.172;2023-02-03T07:09:28;3.00;;;1.50;;
15814;SDS011;8008;50.024;8.172;2023-02-03T07:11:56;3.13;;;1.50;;
15814;SDS011;8008;50.024;8.172;2023-02-03T07:14:25;2.97;;;1.50;;
15814;SDS011;8008;50.024;8.172;2023-02-03T07:16:52;3.40;;;1.63;;
15814;SDS011;8008;50.024;8.172;2023-02-03T07:19:20;2.20;;;1.27;;
15814;SDS011;8008;50.024;8.172;2023-02-03T07:21:48;2.20;;;1.17;;
15814;SDS011;8008;50.024;8.172;2023-02-03T07:24:16;3.10;;;1.53;;
15814;SDS011;8008;50.024;8.172;2023-02-03T07:26:45;1.83;;;1.20;;
15814;SDS011;8008;50.024;8.172;2023-02-03T07:29:13;2.20;;;1.20;;
15814;SDS011;8008;50.024;8.172;2023-02-03T07:31:41;2.13;;;1.40;;
15814;SDS011;8008;50.024;8.172;2023-02-03T07:34:09;1.83;;;1.40;;
15814;SDS011;8008;50.024;8.172;2023-02-03T07:36:37;2.70;;;1.27;;
15814;SDS011;8008;50.024;8.172;2023-02-03T07:39:06;2.83;;;1.43;;
15814;SDS011;8008;50.024;8.172;2023-02-03T07:41:34;3.03;;;1.30;;
15814;SDS011;8008;50.024;8.172;2023-02-03T07:44:03;1.80;;;1.20;;
15814;SDS011;8008;50.024;8.172;2023-02-03T07:46:31;1.85;;;1.10;;
15814;SDS011;8008;50.024;8.172;2023-02-03T07:48:59;2.75;;;1.45;;
15814;SDS011;8008;50.024;8.172;2023-02-03T07:51:29;3.92;;;1.25;;
15814;SDS011;8008;50.024;8.172;2023-02-03T07:53:57;3.57;;;1.10;;
15814;SDS011;8008;50.024;8.172;2023-02-03T07:56:25;2.25;;;1.40;;
15814;SDS011;8008;50.024;8.172;2023-02-03T07:58:53;2.15;;;1.27;;
15814;SDS011;8008;50.024;8.172;2023-02-03T08:01:22;2.10;;;1.20;;
15814;SDS011;8008;50.024;8.172;2023-02-03T08:03:50;2.22;;;1.27;;
15814;SDS011;8008;50.024;8.172;2023-02-03T08:06:20;3.80;;;1.20;;
15814;SDS011;8008;50.024;8.172;2023-02-03T08:08:48;1.40;;;0.90;;
15814;SDS011;8008;50.024;8.172;2023-02-03T08:11:16;2.05;;;1.10;;
15814;SDS011;8008;50.024;8.172;2023-02-03T08:13:44;1.10;;;1.00;;
15814;SDS011;8008;50.024;8.172;2023-02-03T08:16:12;1.90;;;1.27;;
15814;SDS011;8008;50.024;8.172;2023-02-03T08:18:42;2.15;;;1.30;;
15814;SDS011;8008;50.024;8.172;2023-02-03T08:21:10;1.02;;;0.93;;
15814;SDS011;8008;50.024;8.172;2023-02-03T08:23:38;1.47;;;1.10;;
15814;SDS011;8008;50.024;8.172;2023-02-03T08:26:06;3.57;;;1.23;;
15814;SDS011;8008;50.024;8.172;2023-02-03T08:28:33;2.30;;;1.10;;
15814;SDS011;8008;50.024;8.172;2023-02-03T08:31:07;2.17;;;1.20;;
15814;SDS011;8008;50.024;8.172;2023-02-03T08:33:36;4.53;;;1.27;;
15814;SDS011;8008;50.024;8.172;2023-02-03T08:36:05;2.70;;;0.97;;
15814;SDS011;8008;50.024;8.172;2023-02-03T08:38:34;1.80;;;1.20;;
15814;SDS011;8008;50.024;8.172;2023-02-03T08:41:07;2.40;;;1.17;;
15814;SDS011;8008;50.024;8.172;2023-02-03T08:43:35;1.30;;;1.00;;
15814;SDS011;8008;50.024;8.172;2023-02-03T08:46:03;1.73;;;1.13;;
15814;SDS011;8008;50.024;8.172;2023-02-03T08:48:33;1.73;;;1.00;;
15814;SDS011;8008;50.024;8.172;2023-02-03T08:51:01;1.47;;;1.10;;
15814;SDS011;8008;50.024;8.172;2023-02-03T08:53:36;2.93;;;1.23;;
15814;SDS011;8008;50.024;8.172;2023-02-03T08:56:05;1.23;;;1.13;;
15814;SDS011;8008;50.024;8.172;2023-02-03T08:58:33;3.93;;;1.40;;
15814;SDS011;8008;50.024;8.172;2023-02-03T09:01:05;1.52;;;1.20;;
15814;SDS011;8008;50.024;8.172;2023-02-03T09:03:35;3.05;;;1.00;;
15814;SDS011;8008;50.024;8.172;2023-02-03T09:06:04;3.57;;;1.53;;
15814;SDS011;8008;50.024;8.172;2023-02-03T09:08:33;1.50;;;1.05;;
15814;SDS011;8008;50.024;8.172;2023-02-03T09:11:06;1.63;;;1.00;;
15814;SDS011;8008;50.024;8.172;2023-02-03T09:13:35;1.60;;;1.17;;
15814;SDS011;8008;50.024;8.172;2023-02-03T09:16:04;2.08;;;1.15;;
15814;SDS011;8008;50.024;8.172;2023-02-03T09:18:33;1.42;;;1.20;;
15814;SDS011;8008;50.024;8.172;2023-02-03T09:21:01;2.63;;;1.17;;
15814;SDS011;8008;50.024;8.172;2023-02-03T09:23:29;3.20;;;1.07;;
15814;SDS011;8008;50.024;8.172;2023-02-03T09:26:00;2.43;;;1.33;;
15814;SDS011;8008;50.024;8.172;2023-02-03T09:28:30;4.72;;;1.40;;
15814;SDS011;8008;50.024;8.172;2023-02-03T09:30:59;4.22;;;1.20;;
15814;SDS011;8008;50.024;8.172;2023-02-03T09:33:27;4.20;;;1.20;;
15814;SDS011;8008;50.024;8.172;2023-02-03T09:35:56;4.68;;;1.20;;
15814;SDS011;8008;50.024;8.172;2023-02-03T09:38:25;2.10;;;1.00;;
15814;SDS011;8008;50.024;8.172;2023-02-03T09:40:54;1.58;;;0.93;;
15814;SDS011;8008;50.024;8.172;2023-02-03T09:43:39;1.97;;;1.10;;
15814;SDS011;8008;50.024;8.172;2023-02-03T09:46:14;7.20;;;1.17;;
15814;SDS011;8008;50.024;8.172;2023-02-03T09:48:47;3.03;;;1.30;;
15814;SDS011;8008;50.024;8.172;2023-02-03T09:51:19;1.63;;;1.20;;
15814;SDS011;8008;50.024;8.172;2023-02-03T09:53:50;1.10;;;1.00;;
15814;SDS011;8008;50.024;8.172;2023-02-03T09:56:25;2.38;;;1.20;;
15814;SDS011;8008;50.024;8.172;2023-02-03T09:58:58;2.00;;;1.20;;
15814;SDS011;8008;50.024;8.172;2023-02-03T10:01:27;1.30;;;0.98;;
15814;SDS011;8008;50.024;8.172;2023-02-03T10:04:02;3.03;;;1.02;;
15814;SDS011;8008;50.024;8.172;2023-02-03T10:06:35;3.20;;;1.37;;
15814;SDS011;8008;50.024;8.172;2023-02-03T10:12:04;4.15;;;1.33;;
15814;SDS011;8008;50.024;8.172;2023-02-03T10:14:51;2.73;;;1.10;;
15814;SDS011;8008;50.024;8.172;2023-02-03T10:17:29;1.57;;;1.00;;
15814;SDS011;8008;50.024;8.172;2023-02-03T10:22:44;2.27;;;1.00;;
15814;SDS011;8008;50.024;8.172;2023-02-03T10:25:17;1.67;;;1.02;;
15814;SDS011;8008;50.024;8.172;2023-02-03T10:27:50;0.87;;;0.87;;
15814;SDS011;8008;50.024;8.172;2023-02-03T10:30:21;1.70;;;0.93;;
15814;SDS011;8008;50.024;8.172;2023-02-03T10:32:51;3.23;;;1.00;;
15814;SDS011;8008;50.024;8.172;2023-02-03T10:35:24;2.15;;;0.90;;
15814;SDS011;8008;50.024;8.172;2023-02-03T10:37:58;1.65;;;1.02;;
15814;SDS011;8008;50.024;8.172;2023-02-03T10:40:27;1.60;;;0.90;;
15814;SDS011;8008;50.024;8.172;2023-02-03T10:42:56;4.20;;;1.10;;
15814;SDS011;8008;50.024;8.172;2023-02-03T10:45:43;4.13;;;1.08;;
15814;SDS011;8008;50.024;8.172;2023-02-03T10:48:12;1.58;;;0.85;;
15814;SDS011;8008;50.024;8.172;2023-02-03T10:50:45;2.83;;;0.85;;
15814;SDS011;8008;50.024;8.172;2023-02-03T10:53:20;0.90;;;0.88;;
15814;SDS011;8008;50.024;8.172;2023-02-03T10:55:50;1.27;;;0.85;;
15814;SDS011;8008;50.024;8.172;2023-02-03T10:58:28;1.30;;;0.80;;
15814;SDS011;8008;50.024;8.172;2023-02-03T11:01:05;1.85;;;0.80;;
15814;SDS011;8008;50.024;8.172;2023-02-03T11:03:36;2.27;;;0.90;;
15814;SDS011;8008;50.024;8.172;2023-02-03T11:06:06;1.50;;;0.70;;
15814;SDS011;8008;50.024;8.172;2023-02-03T11:08:36;2.33;;;0.77;;
15814;SDS011;8008;50.024;8.172;2023-02-03T11:11:06;1.30;;;0.88;;
15814;SDS011;8008;50.024;8.172;2023-02-03T11:13:35;4.88;;;1.70;;
15814;SDS011;8008;50.024;8.172;2023-02-03T11:16:05;2.30;;;0.88;;
15814;SDS011;8008;50.024;8.172;2023-02-03T11:18:41;2.20;;;1.23;;
15814;SDS011;8008;50.024;8.172;2023-02-03T11:21:14;2.78;;;1.25;;
15814;SDS011;8008;50.024;8.172;2023-02-03T11:23:45;2.55;;;1.30;;
15814;SDS011;8008;50.024;8.172;2023-02-03T11:26:17;1.05;;;0.70;;
15814;SDS011;8008;50.024;8.172;2023-02-03T11:28:48;2.60;;;1.10;;
15814;SDS011;8008;50.024;8.172;2023-02-03T11:31:21;2.65;;;1.10;;
15814;SDS011;8008;50.024;8.172;2023-02-03T11:33:53;4.20;;;1.35;;
15814;SDS011;8008;50.024;8.172;2023-02-03T11:36:28;3.10;;;1.20;;
15814;SDS011;8008;50.024;8.172;2023-02-03T11:39:10;3.80;;;1.00;;
15814;SDS011;8008;50.024;8.172;2023-02-03T11:41:45;3.90;;;1.20;;
15814;SDS011;8008;50.024;8.172;2023-02-03T11:44:16;4.23;;;1.03;;
15814;SDS011;8008;50.024;8.172;2023-02-03T11:46:50;1.70;;;1.17;;
15814;SDS011;8008;50.024;8.172;2023-02-03T11:52:35;2.23;;;1.00;;
15814;SDS011;8008;50.024;8.172;2023-02-03T11:55:14;1.70;;;1.20;;
15814;SDS011;8008;50.024;8.172;2023-02-03T11:57:54;2.00;;;1.10;;
15814;SDS011;8008;50.024;8.172;2023-02-03T12:00:34;1.47;;;1.20;;
15814;SDS011;8008;50.024;8.172;2023-02-03T12:03:20;2.13;;;1.13;;
15814;SDS011;8008;50.024;8.172;2023-02-03T12:06:10;1.80;;;1.20;;
15814;SDS011;8008;50.024;8.172;2023-02-03T12:08:58;5.10;;;1.20;;
15814;SDS011;8008;50.024;8.172;2023-02-03T12:11:43;2.63;;;1.15;;
15814;SDS011;8008;50.024;8.172;2023-02-03T12:14:26;2.30;;;0.83;;
15814;SDS011;8008;50.024;8.172;2023-02-03T12:17:09;2.80;;;1.60;;
15814;SDS011;8008;50.024;8.172;2023-02-03T12:22:56;1.60;;;1.08;;
15814;SDS011;8008;50.024;8.172;2023-02-03T12:25:35;2.38;;;1.23;;
15814;SDS011;8008;50.024;8.172;2023-02-03T12:28:14;2.72;;;1.10;;
15814;SDS011;8008;50.024;8.172;2023-02-03T12:31:01;2.08;;;0.93;;
15814;SDS011;8008;50.024;8.172;2023-02-03T12:33:37;2.60;;;1.60;;
15814;SDS011;8008;50.024;8.172;2023-02-03T12:36:10;1.27;;;1.00;;
15814;SDS011;8008;50.024;8.172;2023-02-03T12:38:43;1.30;;;1.00;;
15814;SDS011;8008;50.024;8.172;2023-02-03T12:41:14;2.30;;;0.80;;
15814;SDS011;8008;50.024;8.172;2023-02-03T12:43:47;2.65;;;0.80;;
15814;SDS011;8008;50.024;8.172;2023-02-03T12:46:20;1.60;;;0.90;;
15814;SDS011;8008;50.024;8.172;2023-02-03T12:48:53;1.05;;;0.90;;
15814;SDS011;8008;50.024;8.172;2023-02-03T12:51:29;1.05;;;0.77;;
15814;SDS011;8008;50.024;8.172;2023-02-03T12:54:03;1.20;;;0.73;;
15814;SDS011;8008;50.024;8.172;2023-02-03T12:56:38;1.20;;;1.00;;
15814;SDS011;8008;50.024;8.172;2023-02-03T12:59:12;2.70;;;1.30;;
15814;SDS011;8008;50.024;8.172;2023-02-03T13:01:46;1.30;;;0.90;;
15814;SDS011;8008;50.024;8.172;2023-02-03T13:04:22;1.43;;;1.00;;
15814;SDS011;8008;50.024;8.172;2023-02-03T13:06:59;1.33;;;1.17;;
15814;SDS011;8008;50.024;8.172;2023-02-03T13:09:40;2.60;;;0.90;;
15814;SDS011;8008;50.024;8.172;2023-02-03T13:12:16;2.70;;;0.80;;
15814;SDS011;8008;50.024;8.172;2023-02-03T13:14:53;2.40;;;1.00;;
15814;SDS011;8008;50.024;8.172;2023-02-03T13:17:30;0.70;;;0.70;;
15814;SDS011;8008;50.024;8.172;2023-02-03T13:20:10;0.70;;;0.70;;
15814;SDS011;8008;50.024;8.172;2023-02-03T13:22:43;0.98;;;0.85;;
15814;SDS011;8008;50.024;8.172;2023-02-03T13:25:14;1.33;;;0.90;;
15814;SDS011;8008;50.024;8.172;2023-02-03T13:27:48;3.83;;;1.38;;
15814;SDS011;8008;50.024;8.172;2023-02-03T13:30:28;1.20;;;0.77;;
15814;SDS011;8008;50.024;8.172;2023-02-03T13:33:10;2.40;;;0.90;;
15814;SDS011;8008;50.024;8.172;2023-02-03T13:35:57;0.70;;;0.70;;
15814;SDS011;8008;50.024;8.172;2023-02-03T13:38:43;1.00;;;0.90;;
15814;SDS011;8008;50.024;8.172;2023-02-03T13:41:25;1.98;;;1.35;;
15814;SDS011;8008;50.024;8.172;2023-02-03T13:44:01;1.80;;;1.45;;
15814;SDS011;8008;50.024;8.172;2023-02-03T13:46:31;1.73;;;1.13;;
15814;SDS011;8008;50.024;8.172;2023-02-03T13:49:02;1.10;;;0.85;;
15814;SDS011;8008;50.024;8.172;2023-02-03T13:51:32;2.38;;;1.35;;
15814;SDS011;8008;50.024;8.172;2023-02-03T13:54:05;1.25;;;1.00;;
15814;SDS011;8008;50.024;8.172;2023-02-03T13:56:40;1.60;;;1.00;;
15814;SDS011;8008;50.024;8.172;2023-02-03T13:59:25;1.38;;;0.88;;
15814;SDS011;8008;50.024;8.172;2023-02-03T14:05:00;0.77;;;0.70;;
15814;SDS011;8008;50.024;8.172;2023-02-03T14:07:30;4.63;;;1.40;;
15814;SDS011;8008;50.024;8.172;2023-02-03T14:10:12;0.68;;;0.68;;
15814;SDS011;8008;50.024;8.172;2023-02-03T14:12:55;0.80;;;0.80;;
15814;SDS011;8008;50.024;8.172;2023-02-03T14:15:29;1.97;;;0.80;;
15814;SDS011;8008;50.024;8.172;2023-02-03T14:18:00;0.63;;;0.63;;
15814;SDS011;8008;50.024;8.172;2023-02-03T14:23:55;0.90;;;0.53;;
15814;SDS011;8008;50.024;8.172;2023-02-03T14:26:36;1.57;;;0.70;;
15814;SDS011;8008;50.024;8.172;2023-02-03T14:29:07;0.70;;;0.70;;
15814;SDS011;8008;50.024;8.172;2023-02-03T14:31:53;0.70;;;0.70;;
15814;SDS011;8008;50.024;8.172;2023-02-03T14:34:27;1.35;;;1.13;;
15814;SDS011;8008;50.024;8.172;2023-02-03T14:37:02;1.13;;;1.00;;
15814;SDS011;8008;50.024;8.172;2023-02-03T14:40:00;0.95;;;0.70;;
15814;SDS011;8008;50.024;8.172;2023-02-03T14:42:55;1.43;;;1.10;;
15814;SDS011;8008;50.024;8.172;2023-02-03T14:45:44;1.05;;;0.93;;
15814;SDS011;8008;50.024;8.172;2023-02-03T14:48:45;2.20;;;0.93;;
15814;SDS011;8008;50.024;8.172;2023-02-03T14:51:34;1.10;;;0.90;;
15814;SDS011;8008;50.024;8.172;2023-02-03T14:54:13;3.83;;;1.80;;
15814;SDS011;8008;50.024;8.172;2023-02-03T14:57:01;1.73;;;1.42;;
15814;SDS011;8008;50.024;8.172;2023-02-03T14:59:43;0.93;;;0.90;;
15814;SDS011;8008;50.024;8.172;2023-02-03T15:02:15;1.33;;;0.90;;
15814;SDS011;8008;50.024;8.172;2023-02-03T15:04:46;1.13;;;0.83;;
15814;SDS011;8008;50.024;8.172;2023-02-03T15:07:34;0.80;;;0.73;;
15814;SDS011;8008;50.024;8.172;2023-02-03T15:10:13;1.05;;;0.90;;
15814;SDS011;8008;50.024;8.172;2023-02-03T15:12:43;1.02;;;0.60;;
15814;SDS011;8008;50.024;8.172;2023-02-03T15:15:24;1.08;;;1.00;;
15814;SDS011;8008;50.024;8.172;2023-02-03T15:17:54;0.90;;;0.90;;
15814;SDS011;8008;50.024;8.172;2023-02-03T15:20:31;1.15;;;0.60;;
15814;SDS011;8008;50.024;8.172;2023-02-03T15:23:01;1.02;;;0.70;;
15814;SDS011;8008;50.024;8.172;2023-02-03T15:25:29;0.63;;;0.63;;
15814;SDS011;8008;50.024;8.172;2023-02-03T15:28:08;0.60;;;0.60;;
15814;SDS011;8008;50.024;8.172;2023-02-03T15:30:39;0.77;;;0.77;;
15814;SDS011;8008;50.024;8.172;2023-02-03T15:33:08;1.48;;;1.10;;
15814;SDS011;8008;50.024;8.172;2023-02-03T15:35:41;1.02;;;1.00;;
15814;SDS011;8008;50.024;8.172;2023-02-03T15:38:12;0.60;;;0.60;;
15814;SDS011;8008;50.024;8.172;2023-02-03T15:40:43;1.00;;;1.00;;
15814;SDS011;8008;50.024;8.172;2023-02-03T15:43:14;0.90;;;0.90;;
15814;SDS011;8008;50.024;8.172;2023-02-03T15:45:52;1.90;;;1.33;;
15814;SDS011;8008;50.024;8.172;2023-02-03T15:48:27;0.88;;;0.85;;
15814;SDS011;8008;50.024;8.172;2023-02-03T15:51:03;0.90;;;0.90;;
15814;SDS011;8008;50.024;8.172;2023-02-03T15:53:37;0.80;;;0.63;;
15814;SDS011;8008;50.024;8.172;2023-02-03T15:56:16;0.70;;;0.70;;
15814;SDS011;8008;50.024;8.172;2023-02-03T15:58:48;0.70;;;0.70;;
15814;SDS011;8008;50.024;8.172;2023-02-03T16:01:20;1.92;;;0.90;;
15814;SDS011;8008;50.024;8.172;2023-02-03T16:03:51;0.70;;;0.70;;
15814;SDS011;8008;50.024;8.172;2023-02-03T16:06:22;1.00;;;0.88;;
15814;SDS011;8008;50.024;8.172;2023-02-03T16:08:55;1.67;;;0.65;;
15814;SDS011;8008;50.024;8.172;2023-02-03T16:11:28;0.73;;;0.60;;
15814;SDS011;8008;50.024;8.172;2023-02-03T16:13:59;0.77;;;0.70;;
15814;SDS011;8008;50.024;8.172;2023-02-03T16:16:30;0.63;;;0.63;;
15814;SDS011;8008;50.024;8.172;2023-02-03T16:19:03;0.95;;;0.73;;
15814;SDS011;8008;50.024;8.172;2023-02-03T16:21:33;2.00;;;0.80;;
15814;SDS011;8008;50.024;8.172;2023-02-03T16:24:03;1.08;;;0.98;;
15814;SDS011;8008;50.024;8.172;2023-02-03T16:26:32;2.15;;;1.02;;
15814;SDS011;8008;50.024;8.172;2023-02-03T16:29:09;1.52;;;0.85;;
15814;SDS011;8008;50.024;8.172;2023-02-03T16:31:58;1.50;;;1.40;;
15814;SDS011;8008;50.024;8.172;2023-02-03T16:34:43;1.55;;;1.45;;
15814;SDS011;8008;50.024;8.172;2023-02-03T16:37:30;0.90;;;0.90;;
15814;SDS011;8008;50.024;8.172;2023-02-03T16:40:18;1.55;;;0.82;;
15814;SDS011;8008;50.024;8.172;2023-02-03T16:43:04;2.08;;;1.02;;
15814;SDS011;8008;50.024;8.172;2023-02-03T16:45:55;1.20;;;1.10;;
15814;SDS011;8008;50.024;8.172;2023-02-03T16:48:44;1.15;;;1.00;;
15814;SDS011;8008;50.024;8.172;2023-02-03T16:51:32;1.45;;;1.10;;
15814;SDS011;8008;50.024;8.172;2023-02-03T16:54:05;1.05;;;1.05;;
15814;SDS011;8008;50.024;8.172;2023-02-03T16:56:33;1.30;;;1.10;;
15814;SDS011;8008;50.024;8.172;2023-02-03T16:59:01;2.28;;;1.40;;
15814;SDS011;8008;50.024;8.172;2023-02-03T17:01:29;2.22;;;1.10;;
15814;SDS011;8008;50.024;8.172;2023-02-03T17:03:59;1.55;;;1.00;;
15814;SDS011;8008;50.024;8.172;2023-02-03T17:06:27;1.00;;;1.00;;
15814;SDS011;8008;50.024;8.172;2023-02-03T17:08:55;1.00;;;1.00;;
15814;SDS011;8008;50.024;8.172;2023-02-03T17:11:24;2.90;;;1.10;;
15814;SDS011;8008;50.024;8.172;2023-02-03T17:13:52;1.50;;;1.20;;
15814;SDS011;8008;50.024;8.172;2023-02-03T17:16:21;2.28;;;1.35;;
15814;SDS011;8008;50.024;8.172;2023-02-03T17:18:50;1.83;;;1.20;;
15814;SDS011;8008;50.024;8.172;2023-02-03T17:21:20;1.85;;;1.35;;
15814;SDS011;8008;50.024;8.172;2023-02-03T17:23:50;1.90;;;1.70;;
15814;SDS011;8008;50.024;8.172;2023-02-03T17:26:18;1.40;;;1.30;;
15814;SDS011;8008;50.024;8.172;2023-02-03T17:28:46;1.65;;;1.42;;
15814;SDS011;8008;50.024;8.172;2023-02-03T17:31:15;1.58;;;1.48;;
15814;SDS011;8008;50.024;8.172;2023-02-03T17:33:44;1.77;;;1.50;;
15814;SDS011;8008;50.024;8.172;2023-02-03T17:36:13;2.28;;;1.95;;
15814;SDS011;8008;50.024;8.172;2023-02-03T17:38:45;2.20;;;1.80;;
15814;SDS011;8008;50.024;8.172;2023-02-03T17:41:32;1.65;;;1.55;;
15814;SDS011;8008;50.024;8.172;2023-02-03T17:44:18;2.40;;;1.80;;
15814;SDS011;8008;50.024;8.172;2023-02-03T17:47:03;2.70;;;1.70;;
15814;SDS011;8008;50.024;8.172;2023-02-03T17:49:49;1.70;;;1.60;;
15814;SDS011;8008;50.024;8.172;2023-02-03T17:52:34;4.63;;;1.90;;
15814;SDS011;8008;50.024;8.172;2023-02-03T17:55:21;3.75;;;1.88;;
15814;SDS011;8008;50.024;8.172;2023-02-03T17:57:49;1.92;;;1.73;;
15814;SDS011;8008;50.024;8.172;2023-02-03T18:00:17;2.38;;;1.80;;
15814;SDS011;8008;50.024;8.172;2023-02-03T18:02:47;2.10;;;1.90;;
15814;SDS011;8008;50.024;8.172;2023-02-03T18:05:16;2.33;;;1.75;;
15814;SDS011;8008;50.024;8.172;2023-02-03T18:07:44;2.17;;;1.77;;
15814;SDS011;8008;50.024;8.172;2023-02-03T18:10:17;3.47;;;1.97;;
15814;SDS011;8008;50.024;8.172;2023-02-03T18:12:46;3.30;;;1.92;;
15814;SDS011;8008;50.024;8.172;2023-02-03T18:15:14;3.42;;;1.90;;
15814;SDS011;8008;50.024;8.172;2023-02-03T18:17:42;3.83;;;2.28;;
15814;SDS011;8008;50.024;8.172;2023-02-03T18:20:10;4.10;;;3.20;;
15814;SDS011;8008;50.024;8.172;2023-02-03T18:22:39;4.67;;;3.37;;
15814;SDS011;8008;50.024;8.172;2023-02-03T18:25:07;4.00;;;3.20;;
15814;SDS011;8008;50.024;8.172;2023-02-03T18:27:35;3.13;;;2.40;;
15814;SDS011;8008;50.024;8.172;2023-02-03T18:30:06;2.90;;;2.43;;
15814;SDS011;8008;50.024;8.172;2023-02-03T18:32:36;2.60;;;2.13;;
15814;SDS011;8008;50.024;8.172;2023-02-03T18:35:04;3.25;;;2.70;;
15814;SDS011;8008;50.024;8.172;2023-02-03T18:37:38;5.15;;;2.92;;
15814;SDS011;8008;50.024;8.172;2023-02-03T18:40:06;4.88;;;3.17;;
15814;SDS011;8008;50.024;8.172;2023-02-03T18:42:34;3.72;;;2.50;;
15814;SDS011;8008;50.024;8.172;2023-02-03T18:45:02;3.90;;;2.13;;
15814;SDS011;8008;50.024;8.172;2023-02-03T18:47:33;6.03;;;2.75;;
15814;SDS011;8008;50.024;8.172;2023-02-03T18:50:01;2.58;;;1.92;;
15814;SDS011;8008;50.024;8.172;2023-02-03T18:52:29;3.08;;;2.40;;
15814;SDS011;8008;50.024;8.172;2023-02-03T18:54:57;4.95;;;2.90;;
15814;SDS011;8008;50.024;8.172;2023-02-03T18:57:25;6.20;;;4.10;;
15814;SDS011;8008;50.024;8.172;2023-02-03T18:59:52;7.03;;;3.90;;
15814;SDS011;8008;50.024;8.172;2023-02-03T19:02:23;5.30;;;3.53;;
15814;SDS011;8008;50.024;8.172;2023-02-03T19:04:53;3.93;;;2.90;;
15814;SDS011;8008;50.024;8.172;2023-02-03T19:07:20;3.90;;;2.60;;
15814;SDS011;8008;50.024;8.172;2023-02-03T19:09:48;8.25;;;5.07;;
15814;SDS011;8008;50.024;8.172;2023-02-03T19:12:16;9.27;;;4.60;;
15814;SDS011;8008;50.024;8.172;2023-02-03T19:14:44;12.13;;;4.50;;
15814;SDS011;8008;50.024;8.172;2023-02-03T19:17:12;11.20;;;3.75;;
15814;SDS011;8008;50.024;8.172;2023-02-03T19:19:41;6.28;;;2.90;;
15814;SDS011;8008;50.024;8.172;2023-02-03T19:22:11;9.43;;;3.00;;
15814;SDS011;8008;50.024;8.172;2023-02-03T19:24:39;8.05;;;3.00;;
15814;SDS011;8008;50.024;8.172;2023-02-03T19:27:07;8.95;;;3.60;;
15814;SDS011;8008;50.024;8.172;2023-02-03T19:29:35;5.35;;;2.88;;
15814;SDS011;8008;50.024;8.172;2023-02-03T19:32:04;8.85;;;2.83;;
15814;SDS011;8008;50.024;8.172;2023-02-03T19:34:33;8.68;;;3.50;;
15814;SDS011;8008;50.024;8.172;2023-02-03T19:37:01;7.82;;;3.25;;
15814;SDS011;8008;50.024;8.172;2023-02-03T19:39:30;8.48;;;2.45;;
15814;SDS011;8008;50.024;8.172;2023-02-03T19:41:58;11.27;;;3.20;;
15814;SDS011;8008;50.024;8.172;2023-02-03T19:44:26;7.82;;;2.53;;
15814;SDS011;8008;50.024;8.172;2023-02-03T19:46:54;10.52;;;3.00;;
15814;SDS011;8008;50.024;8.172;2023-02-03T19:49:22;10.60;;;2.70;;
15814;SDS011;8008;50.024;8.172;2023-02-03T19:51:50;10.18;;;2.67;;